sensor_id;sensor_type;location;lat;lon;timestamp;temperature;humidity
33564;DHT22;19894;48.452;11.494;2023-05-23T00:00:37;19.90;58.70
33564;DHT22;19894;48.452;11.494;2023-05-23T00:03:03;19.90;58.70
33564;DHT22;19894;48.452;11.494;2023-05-23T00:05:28;19.90;58.70
33564;DHT22;19894;48.452;11.494;2023-05-23T00:07:54;19.90;58.70
33564;DHT22;19894;48.452;11.494;2023-05-23T00:10:20;19.90;58.70
33564;DHT22;19894;48.452;11.494;2023-05-23T00:12:46;19.90;58.90
33564;DHT22;19894;48.452;11.494;2023-05-23T00:15:12;19.90;58.90
33564;DHT22;19894;48.452;11.494;2023-05-23T00:17:38;19.90;58.90
33564;DHT22;19894;48.452;11.494;2023-05-23T00:20:05;19.90;59.00
33564;DHT22;19894;48.452;11.494;2023-05-23T00:22:34;19.90;59.00
33564;DHT22;19894;48.452;11.494;2023-05-23T00:25:01;19.90;59.00
33564;DHT22;19894;48.452;11.494;2023-05-23T00:27:26;19.90;59.00
33564;DHT22;19894;48.452;11.494;2023-05-23T00:29:52;19.90;59.00
33564;DHT22;19894;48.452;11.494;2023-05-23T00:32:17;19.90;59.00
33564;DHT22;19894;48.452;11.494;2023-05-23T00:34:43;19.90;58.90
33564;DHT22;19894;48.452;11.494;2023-05-23T00:37:09;19.90;58.90
33564;DHT22;19894;48.452;11.494;2023-05-23T00:39:36;19.90;58.90
33564;DHT22;19894;48.452;11.494;2023-05-23T00:42:03;19.90;58.90
33564;DHT22;19894;48.452;11.494;2023-05-23T00:44:29;19.90;58.90
33564;DHT22;19894;48.452;11.494;2023-05-23T00:46:56;19.90;58.80
33564;DHT22;19894;48.452;11.494;2023-05-23T00:49:22;19.90;58.80
33564;DHT22;19894;48.452;11.494;2023-05-23T00:51:49;19.90;58.80
33564;DHT22;19894;48.452;11.494;2023-05-23T00:54:23;19.90;58.80
33564;DHT22;19894;48.452;11.494;2023-05-23T00:56:49;19.90;58.80
33564;DHT22;19894;48.452;11.494;2023-05-23T00:59:15;19.90;58.80
33564;DHT22;19894;48.452;11.494;2023-05-23T01:01:41;19.90;58.80
33564;DHT22;19894;48.452;11.494;2023-05-23T01:04:11;19.90;58.80
33564;DHT22;19894;48.452;11.494;2023-05-23T01:06:37;19.90;58.80
33564;DHT22;19894;48.452;11.494;2023-05-23T01:09:04;19.80;58.80
33564;DHT22;19894;48.452;11.494;2023-05-23T01:11:57;19.90;58.90
33564;DHT22;19894;48.452;11.494;2023-05-23T01:14:31;19.90;58.90
33564;DHT22;19894;48.452;11.494;2023-05-23T01:17:00;19.90;59.00
33564;DHT22;19894;48.452;11.494;2023-05-23T01:22:09;19.90;59.30
33564;DHT22;19894;48.452;11.494;2023-05-23T01:24:49;19.80;59.30
33564;DHT22;19894;48.452;11.494;2023-05-23T01:27:28;19.90;59.40
33564;DHT22;19894;48.452;11.494;2023-05-23T01:29:57;19.90;59.50
33564;DHT22;19894;48.452;11.494;2023-05-23T01:32:26;19.90;59.50
33564;DHT22;19894;48.452;11.494;2023-05-23T01:34:54;19.90;59.50
33564;DHT22;19894;48.452;11.494;2023-05-23T01:37:20;19.90;59.50
33564;DHT22;19894;48.452;11.494;2023-05-23T01:39:46;19.90;59.50
33564;DHT22;19894;48.452;11.494;2023-05-23T01:42:12;19.90;59.50
33564;DHT22;19894;48.452;11.494;2023-05-23T01:44:38;19.90;59.50
33564;DHT22;19894;48.452;11.494;2023-05-23T01:47:06;19.90;59.50
33564;DHT22;19894;48.452;11.494;2023-05-23T01:49:33;19.90;59.40
33564;DHT22;19894;48.452;11.494;2023-05-23T01:52:00;19.90;59.40
33564;DHT22;19894;48.452;11.494;2023-05-23T01:54:27;19.90;59.40
33564;DHT22;19894;48.452;11.494;2023-05-23T01:56:55;19.90;59.30
33564;DHT22;19894;48.452;11.494;2023-05-23T01:59:21;19.90;59.40
33564;DHT22;19894;48.452;11.494;2023-05-23T02:01:47;19.90;59.40
33564;DHT22;19894;48.452;11.494;2023-05-23T02:04:12;19.90;59.30
33564;DHT22;19894;48.452;11.494;2023-05-23T02:06:38;19.90;59.30
33564;DHT22;19894;48.452;11.494;2023-05-23T02:09:04;19.90;59.20
33564;DHT22;19894;48.452;11.494;2023-05-23T02:11:30;19.90;59.20
33564;DHT22;19894;48.452;11.494;2023-05-23T02:13:55;19.90;59.30
33564;DHT22;19894;48.452;11.494;2023-05-23T02:16:21;19.90;59.30
33564;DHT22;19894;48.452;11.494;2023-05-23T02:18:47;19.90;59.20
33564;DHT22;19894;48.452;11.494;2023-05-23T02:21:13;19.90;59.30
33564;DHT22;19894;48.452;11.494;2023-05-23T02:23:39;19.90;59.50
33564;DHT22;19894;48.452;11.494;2023-05-23T02:26:04;19.90;59.60
33564;DHT22;19894;48.452;11.494;2023-05-23T02:28:30;19.90;59.70
33564;DHT22;19894;48.452;11.494;2023-05-23T02:30:55;19.90;59.70
33564;DHT22;19894;48.452;11.494;2023-05-23T02:33:21;19.90;59.70
33564;DHT22;19894;48.452;11.494;2023-05-23T02:35:46;19.90;59.80
33564;DHT22;19894;48.452;11.494;2023-05-23T02:38:14;19.90;59.80
33564;DHT22;19894;48.452;11.494;2023-05-23T02:40:39;19.90;59.80
33564;DHT22;19894;48.452;11.494;2023-05-23T02:43:05;19.90;59.80
33564;DHT22;19894;48.452;11.494;2023-05-23T02:45:30;19.90;59.80
33564;DHT22;19894;48.452;11.494;2023-05-23T02:47:56;19.90;59.70
33564;DHT22;19894;48.452;11.494;2023-05-23T02:50:22;19.90;59.70
33564;DHT22;19894;48.452;11.494;2023-05-23T02:52:47;19.90;59.70
33564;DHT22;19894;48.452;11.494;2023-05-23T02:55:13;19.90;59.60
33564;DHT22;19894;48.452;11.494;2023-05-23T02:57:38;19.90;59.60
33564;DHT22;19894;48.452;11.494;2023-05-23T03:00:04;19.90;59.60
33564;DHT22;19894;48.452;11.494;2023-05-23T03:02:30;19.90;59.50
33564;DHT22;19894;48.452;11.494;2023-05-23T03:04:56;19.90;59.60
33564;DHT22;19894;48.452;11.494;2023-05-23T03:07:22;19.90;59.50
33564;DHT22;19894;48.452;11.494;2023-05-23T03:09:47;19.90;59.40
33564;DHT22;19894;48.452;11.494;2023-05-23T03:12:13;19.90;59.40
33564;DHT22;19894;48.452;11.494;2023-05-23T03:14:38;19.90;59.40
33564;DHT22;19894;48.452;11.494;2023-05-23T03:17:04;19.90;59.40
33564;DHT22;19894;48.452;11.494;2023-05-23T03:19:29;19.90;59.40
33564;DHT22;19894;48.452;11.494;2023-05-23T03:21:55;19.90;59.30
33564;DHT22;19894;48.452;11.494;2023-05-23T03:24:20;19.90;59.30
33564;DHT22;19894;48.452;11.494;2023-05-23T03:26:46;19.90;59.40
33564;DHT22;19894;48.452;11.494;2023-05-23T03:29:12;19.80;59.30
33564;DHT22;19894;48.452;11.494;2023-05-23T03:31:37;19.90;59.50
33564;DHT22;19894;48.452;11.494;2023-05-23T03:34:03;19.90;59.80
33564;DHT22;19894;48.452;11.494;2023-05-23T03:36:30;19.90;59.80
33564;DHT22;19894;48.452;11.494;2023-05-23T03:38:58;19.90;59.80
33564;DHT22;19894;48.452;11.494;2023-05-23T03:41:24;19.90;59.80
33564;DHT22;19894;48.452;11.494;2023-05-23T03:43:50;19.90;59.80
33564;DHT22;19894;48.452;11.494;2023-05-23T03:46:16;19.90;60.00
33564;DHT22;19894;48.452;11.494;2023-05-23T03:48:41;19.90;59.90
33564;DHT22;19894;48.452;11.494;2023-05-23T03:51:07;19.90;59.90
33564;DHT22;19894;48.452;11.494;2023-05-23T03:53:32;19.90;59.90
33564;DHT22;19894;48.452;11.494;2023-05-23T03:55:58;19.90;59.90
33564;DHT22;19894;48.452;11.494;2023-05-23T03:58:23;19.90;59.80
33564;DHT22;19894;48.452;11.494;2023-05-23T04:00:49;19.90;59.80
33564;DHT22;19894;48.452;11.494;2023-05-23T04:03:15;19.90;59.70
33564;DHT22;19894;48.452;11.494;2023-05-23T04:05:42;19.90;59.70
33564;DHT22;19894;48.452;11.494;2023-05-23T04:08:08;19.90;59.60
33564;DHT22;19894;48.452;11.494;2023-05-23T04:10:34;19.90;59.60
33564;DHT22;19894;48.452;11.494;2023-05-23T04:13:00;19.90;59.50
33564;DHT22;19894;48.452;11.494;2023-05-23T04:15:25;19.90;59.50
33564;DHT22;19894;48.452;11.494;2023-05-23T04:17:52;19.90;59.50
33564;DHT22;19894;48.452;11.494;2023-05-23T04:20:18;19.90;59.40
33564;DHT22;19894;48.452;11.494;2023-05-23T04:22:43;19.90;59.40
33564;DHT22;19894;48.452;11.494;2023-05-23T04:25:09;19.90;59.30
33564;DHT22;19894;48.452;11.494;2023-05-23T04:27:34;19.90;59.30
33564;DHT22;19894;48.452;11.494;2023-05-23T04:30:00;19.90;59.30
33564;DHT22;19894;48.452;11.494;2023-05-23T04:32:26;19.80;59.30
33564;DHT22;19894;48.452;11.494;2023-05-23T04:34:51;19.90;59.40
33564;DHT22;19894;48.452;11.494;2023-05-23T04:37:18;19.90;59.50
33564;DHT22;19894;48.452;11.494;2023-05-23T04:39:47;19.90;59.60
33564;DHT22;19894;48.452;11.494;2023-05-23T04:42:12;19.90;59.80
33564;DHT22;19894;48.452;11.494;2023-05-23T04:44:38;19.90;59.80
33564;DHT22;19894;48.452;11.494;2023-05-23T04:47:04;19.90;59.90
33564;DHT22;19894;48.452;11.494;2023-05-23T04:49:29;19.80;59.90
33564;DHT22;19894;48.452;11.494;2023-05-23T04:51:58;19.90;60.50
33564;DHT22;19894;48.452;11.494;2023-05-23T04:54:24;19.90;60.00
33564;DHT22;19894;48.452;11.494;2023-05-23T04:56:50;19.90;60.00
33564;DHT22;19894;48.452;11.494;2023-05-23T04:59:15;19.90;60.00
33564;DHT22;19894;48.452;11.494;2023-05-23T05:01:41;19.90;60.10
33564;DHT22;19894;48.452;11.494;2023-05-23T05:04:06;19.90;60.00
33564;DHT22;19894;48.452;11.494;2023-05-23T05:06:32;19.90;60.00
33564;DHT22;19894;48.452;11.494;2023-05-23T05:08:58;19.90;60.00
33564;DHT22;19894;48.452;11.494;2023-05-23T05:11:24;19.90;59.90
33564;DHT22;19894;48.452;11.494;2023-05-23T05:13:51;19.90;59.90
33564;DHT22;19894;48.452;11.494;2023-05-23T05:16:16;19.90;60.00
33564;DHT22;19894;48.452;11.494;2023-05-23T05:18:42;19.90;60.00
33564;DHT22;19894;48.452;11.494;2023-05-23T05:21:08;19.90;60.00
33564;DHT22;19894;48.452;11.494;2023-05-23T05:23:34;19.90;60.00
33564;DHT22;19894;48.452;11.494;2023-05-23T05:26:00;19.90;60.00
33564;DHT22;19894;48.452;11.494;2023-05-23T05:28:26;19.90;60.00
33564;DHT22;19894;48.452;11.494;2023-05-23T05:30:51;19.90;60.20
33564;DHT22;19894;48.452;11.494;2023-05-23T05:33:20;19.90;60.20
33564;DHT22;19894;48.452;11.494;2023-05-23T05:35:49;19.90;60.30
33564;DHT22;19894;48.452;11.494;2023-05-23T05:38:18;19.90;60.30
33564;DHT22;19894;48.452;11.494;2023-05-23T05:40:43;19.90;60.30
33564;DHT22;19894;48.452;11.494;2023-05-23T05:43:09;19.80;60.40
33564;DHT22;19894;48.452;11.494;2023-05-23T05:45:35;19.90;60.60
33564;DHT22;19894;48.452;11.494;2023-05-23T05:48:00;19.90;61.00
33564;DHT22;19894;48.452;11.494;2023-05-23T05:50:26;19.90;61.10
33564;DHT22;19894;48.452;11.494;2023-05-23T05:52:52;19.90;61.20
33564;DHT22;19894;48.452;11.494;2023-05-23T05:55:17;19.90;61.10
33564;DHT22;19894;48.452;11.494;2023-05-23T05:57:43;19.90;61.30
33564;DHT22;19894;48.452;11.494;2023-05-23T06:00:11;19.90;61.30
33564;DHT22;19894;48.452;11.494;2023-05-23T06:02:39;19.90;61.40
33564;DHT22;19894;48.452;11.494;2023-05-23T06:05:06;19.90;61.40
33564;DHT22;19894;48.452;11.494;2023-05-23T06:07:33;19.90;61.40
33564;DHT22;19894;48.452;11.494;2023-05-23T06:09:59;19.90;61.50
33564;DHT22;19894;48.452;11.494;2023-05-23T06:12:24;19.90;61.50
33564;DHT22;19894;48.452;11.494;2023-05-23T06:14:50;19.90;61.50
33564;DHT22;19894;48.452;11.494;2023-05-23T06:17:15;19.90;61.30
33564;DHT22;19894;48.452;11.494;2023-05-23T06:19:41;19.90;61.40
33564;DHT22;19894;48.452;11.494;2023-05-23T06:22:06;19.90;61.30
33564;DHT22;19894;48.452;11.494;2023-05-23T06:24:32;19.90;61.40
33564;DHT22;19894;48.452;11.494;2023-05-23T06:26:57;19.90;61.40
33564;DHT22;19894;48.452;11.494;2023-05-23T06:29:23;19.90;61.40
33564;DHT22;19894;48.452;11.494;2023-05-23T06:31:49;19.90;61.50
33564;DHT22;19894;48.452;11.494;2023-05-23T06:34:15;19.90;61.50
33564;DHT22;19894;48.452;11.494;2023-05-23T06:36:41;19.90;61.60
33564;DHT22;19894;48.452;11.494;2023-05-23T06:39:08;19.90;61.50
33564;DHT22;19894;48.452;11.494;2023-05-23T06:41:37;19.90;61.40
33564;DHT22;19894;48.452;11.494;2023-05-23T06:44:03;19.90;61.50
33564;DHT22;19894;48.452;11.494;2023-05-23T06:46:28;19.90;61.70
33564;DHT22;19894;48.452;11.494;2023-05-23T06:48:54;19.90;61.90
33564;DHT22;19894;48.452;11.494;2023-05-23T06:51:19;19.90;61.90
33564;DHT22;19894;48.452;11.494;2023-05-23T06:53:45;19.90;62.00
33564;DHT22;19894;48.452;11.494;2023-05-23T06:56:11;19.90;62.30
33564;DHT22;19894;48.452;11.494;2023-05-23T06:58:36;19.90;62.40
33564;DHT22;19894;48.452;11.494;2023-05-23T07:01:02;19.90;62.40
33564;DHT22;19894;48.452;11.494;2023-05-23T07:03:27;19.90;62.40
33564;DHT22;19894;48.452;11.494;2023-05-23T07:05:53;19.90;62.40
33564;DHT22;19894;48.452;11.494;2023-05-23T07:08:18;19.90;62.50
33564;DHT22;19894;48.452;11.494;2023-05-23T07:10:44;19.90;62.40
33564;DHT22;19894;48.452;11.494;2023-05-23T07:13:10;20.00;62.40
33564;DHT22;19894;48.452;11.494;2023-05-23T07:15:35;20.00;62.50
33564;DHT22;19894;48.452;11.494;2023-05-23T07:18:01;19.90;62.30
33564;DHT22;19894;48.452;11.494;2023-05-23T07:20:26;19.90;62.30
33564;DHT22;19894;48.452;11.494;2023-05-23T07:22:52;20.00;62.30
33564;DHT22;19894;48.452;11.494;2023-05-23T07:25:17;19.90;62.20
33564;DHT22;19894;48.452;11.494;2023-05-23T07:27:43;20.00;62.20
33564;DHT22;19894;48.452;11.494;2023-05-23T07:30:09;19.90;62.10
33564;DHT22;19894;48.452;11.494;2023-05-23T07:32:35;20.00;62.20
33564;DHT22;19894;48.452;11.494;2023-05-23T07:35:00;19.90;62.10
33564;DHT22;19894;48.452;11.494;2023-05-23T07:37:26;19.90;62.00
33564;DHT22;19894;48.452;11.494;2023-05-23T07:39:52;19.90;61.90
33564;DHT22;19894;48.452;11.494;2023-05-23T07:42:18;19.90;61.90
33564;DHT22;19894;48.452;11.494;2023-05-23T07:44:44;19.90;61.80
33564;DHT22;19894;48.452;11.494;2023-05-23T07:47:09;19.90;61.90
33564;DHT22;19894;48.452;11.494;2023-05-23T07:49:35;19.90;61.80
33564;DHT22;19894;48.452;11.494;2023-05-23T07:52:00;19.90;61.80
33564;DHT22;19894;48.452;11.494;2023-05-23T07:54:26;19.90;62.00
33564;DHT22;19894;48.452;11.494;2023-05-23T07:56:52;19.90;62.20
33564;DHT22;19894;48.452;11.494;2023-05-23T07:59:18;19.90;62.30
33564;DHT22;19894;48.452;11.494;2023-05-23T08:01:44;19.90;62.50
33564;DHT22;19894;48.452;11.494;2023-05-23T08:04:09;19.90;62.60
33564;DHT22;19894;48.452;11.494;2023-05-23T08:06:35;19.90;62.60
33564;DHT22;19894;48.452;11.494;2023-05-23T08:09:02;19.90;62.60
33564;DHT22;19894;48.452;11.494;2023-05-23T08:11:28;19.90;62.60
33564;DHT22;19894;48.452;11.494;2023-05-23T08:13:55;19.90;62.70
33564;DHT22;19894;48.452;11.494;2023-05-23T08:16:21;19.90;62.70
33564;DHT22;19894;48.452;11.494;2023-05-23T08:18:47;20.00;62.80
33564;DHT22;19894;48.452;11.494;2023-05-23T08:21:12;19.90;62.70
33564;DHT22;19894;48.452;11.494;2023-05-23T08:23:38;19.90;62.70
33564;DHT22;19894;48.452;11.494;2023-05-23T08:26:04;20.00;62.80
33564;DHT22;19894;48.452;11.494;2023-05-23T08:28:29;20.00;62.70
33564;DHT22;19894;48.452;11.494;2023-05-23T08:30:55;20.00;62.80
33564;DHT22;19894;48.452;11.494;2023-05-23T08:33:22;20.00;62.70
33564;DHT22;19894;48.452;11.494;2023-05-23T08:35:47;19.90;62.60
33564;DHT22;19894;48.452;11.494;2023-05-23T08:38:13;19.90;62.60
33564;DHT22;19894;48.452;11.494;2023-05-23T08:40:39;19.90;63.20
33564;DHT22;19894;48.452;11.494;2023-05-23T08:43:06;20.00;62.90
33564;DHT22;19894;48.452;11.494;2023-05-23T08:45:31;20.00;63.10
33564;DHT22;19894;48.452;11.494;2023-05-23T08:48:00;19.90;62.60
33564;DHT22;19894;48.452;11.494;2023-05-23T08:50:27;19.90;62.60
33564;DHT22;19894;48.452;11.494;2023-05-23T08:52:56;19.90;62.70
33564;DHT22;19894;48.452;11.494;2023-05-23T08:55:23;19.90;62.70
33564;DHT22;19894;48.452;11.494;2023-05-23T08:57:56;19.90;62.70
33564;DHT22;19894;48.452;11.494;2023-05-23T09:00:25;19.90;62.60
33564;DHT22;19894;48.452;11.494;2023-05-23T09:02:51;19.90;62.70
33564;DHT22;19894;48.452;11.494;2023-05-23T09:05:19;19.90;62.80
33564;DHT22;19894;48.452;11.494;2023-05-23T09:07:46;19.90;63.00
33564;DHT22;19894;48.452;11.494;2023-05-23T09:10:16;19.90;63.00
33564;DHT22;19894;48.452;11.494;2023-05-23T09:12:44;19.90;63.00
33564;DHT22;19894;48.452;11.494;2023-05-23T09:15:11;19.90;63.00
33564;DHT22;19894;48.452;11.494;2023-05-23T09:17:37;19.90;63.00
33564;DHT22;19894;48.452;11.494;2023-05-23T09:20:13;19.90;63.00
33564;DHT22;19894;48.452;11.494;2023-05-23T09:22:40;19.90;63.00
33564;DHT22;19894;48.452;11.494;2023-05-23T09:25:06;20.00;63.00
33564;DHT22;19894;48.452;11.494;2023-05-23T09:27:32;19.90;62.90
33564;DHT22;19894;48.452;11.494;2023-05-23T09:30:08;20.00;62.90
33564;DHT22;19894;48.452;11.494;2023-05-23T09:32:34;20.00;63.00
33564;DHT22;19894;48.452;11.494;2023-05-23T09:35:04;20.00;62.90
33564;DHT22;19894;48.452;11.494;2023-05-23T09:37:32;19.90;62.80
33564;DHT22;19894;48.452;11.494;2023-05-23T09:39:59;19.90;62.70
33564;DHT22;19894;48.452;11.494;2023-05-23T09:42:31;19.90;62.70
33564;DHT22;19894;48.452;11.494;2023-05-23T09:44:57;20.00;62.70
33564;DHT22;19894;48.452;11.494;2023-05-23T09:47:23;19.90;62.60
33564;DHT22;19894;48.452;11.494;2023-05-23T09:49:49;20.00;62.60
33564;DHT22;19894;48.452;11.494;2023-05-23T09:52:16;20.00;62.70
33564;DHT22;19894;48.452;11.494;2023-05-23T09:54:42;19.90;62.70
33564;DHT22;19894;48.452;11.494;2023-05-23T09:57:14;19.90;62.70
33564;DHT22;19894;48.452;11.494;2023-05-23T09:59:41;19.90;62.70
33564;DHT22;19894;48.452;11.494;2023-05-23T10:02:12;19.90;62.60
33564;DHT22;19894;48.452;11.494;2023-05-23T10:04:42;19.90;62.60
33564;DHT22;19894;48.452;11.494;2023-05-23T10:07:18;19.90;62.70
33564;DHT22;19894;48.452;11.494;2023-05-23T10:09:49;19.90;62.80
33564;DHT22;19894;48.452;11.494;2023-05-23T10:12:43;19.90;62.90
33564;DHT22;19894;48.452;11.494;2023-05-23T10:15:13;19.90;63.10
33564;DHT22;19894;48.452;11.494;2023-05-23T10:20:28;19.90;63.10
33564;DHT22;19894;48.452;11.494;2023-05-23T10:23:00;19.90;63.10
33564;DHT22;19894;48.452;11.494;2023-05-23T10:25:27;19.90;63.10
33564;DHT22;19894;48.452;11.494;2023-05-23T10:27:54;19.90;63.20
33564;DHT22;19894;48.452;11.494;2023-05-23T10:30:27;19.90;63.10
33564;DHT22;19894;48.452;11.494;2023-05-23T10:32:54;20.00;63.20
33564;DHT22;19894;48.452;11.494;2023-05-23T10:43:30;20.00;63.00
33564;DHT22;19894;48.452;11.494;2023-05-23T10:45:58;20.00;63.00
33564;DHT22;19894;48.452;11.494;2023-05-23T10:51:06;20.00;62.90
33564;DHT22;19894;48.452;11.494;2023-05-23T10:53:40;20.00;62.90
33564;DHT22;19894;48.452;11.494;2023-05-23T10:56:07;20.00;62.80
33564;DHT22;19894;48.452;11.494;2023-05-23T10:58:35;19.90;62.70
33564;DHT22;19894;48.452;11.494;2023-05-23T11:01:04;19.90;62.70
33564;DHT22;19894;48.452;11.494;2023-05-23T11:06:43;19.90;62.70
33564;DHT22;19894;48.452;11.494;2023-05-23T11:09:27;19.90;62.80
33564;DHT22;19894;48.452;11.494;2023-05-23T11:11:54;19.90;62.70
33564;DHT22;19894;48.452;11.494;2023-05-23T11:16:57;19.90;62.60
33564;DHT22;19894;48.452;11.494;2023-05-23T11:19:25;19.90;62.80
33564;DHT22;19894;48.452;11.494;2023-05-23T11:22:00;19.90;63.20
33564;DHT22;19894;48.452;11.494;2023-05-23T11:27:24;19.90;63.20
33564;DHT22;19894;48.452;11.494;2023-05-23T11:30:09;19.90;63.30
33564;DHT22;19894;48.452;11.494;2023-05-23T11:32:35;20.00;63.50
33564;DHT22;19894;48.452;11.494;2023-05-23T11:35:03;20.00;63.50
33564;DHT22;19894;48.452;11.494;2023-05-23T11:37:29;19.90;63.30
33564;DHT22;19894;48.452;11.494;2023-05-23T11:39:56;20.00;63.50
33564;DHT22;19894;48.452;11.494;2023-05-23T11:42:22;20.00;63.50
33564;DHT22;19894;48.452;11.494;2023-05-23T11:44:52;20.00;63.40
33564;DHT22;19894;48.452;11.494;2023-05-23T11:47:18;20.00;63.90
33564;DHT22;19894;48.452;11.494;2023-05-23T11:49:47;20.00;63.20
33564;DHT22;19894;48.452;11.494;2023-05-23T11:52:13;20.00;63.20
33564;DHT22;19894;48.452;11.494;2023-05-23T11:54:40;20.00;63.20
33564;DHT22;19894;48.452;11.494;2023-05-23T11:57:07;20.00;63.10
33564;DHT22;19894;48.452;11.494;2023-05-23T11:59:33;20.00;63.10
33564;DHT22;19894;48.452;11.494;2023-05-23T12:02:00;20.00;63.00
33564;DHT22;19894;48.452;11.494;2023-05-23T12:04:26;20.00;62.90
33564;DHT22;19894;48.452;11.494;2023-05-23T12:06:52;20.00;63.00
33564;DHT22;19894;48.452;11.494;2023-05-23T12:09:18;19.90;62.90
33564;DHT22;19894;48.452;11.494;2023-05-23T12:11:44;20.00;62.90
33564;DHT22;19894;48.452;11.494;2023-05-23T12:14:16;19.90;62.90
33564;DHT22;19894;48.452;11.494;2023-05-23T12:16:45;19.90;62.80
33564;DHT22;19894;48.452;11.494;2023-05-23T12:19:15;20.00;62.80
33564;DHT22;19894;48.452;11.494;2023-05-23T12:21:46;19.90;62.80
33564;DHT22;19894;48.452;11.494;2023-05-23T12:24:20;19.90;63.10
33564;DHT22;19894;48.452;11.494;2023-05-23T12:26:58;19.90;62.80
33564;DHT22;19894;48.452;11.494;2023-05-23T12:29:29;20.00;63.10
33564;DHT22;19894;48.452;11.494;2023-05-23T12:31:57;19.90;63.00
33564;DHT22;19894;48.452;11.494;2023-05-23T12:34:23;19.90;63.40
33564;DHT22;19894;48.452;11.494;2023-05-23T12:36:48;20.00;62.90
33564;DHT22;19894;48.452;11.494;2023-05-23T12:39:14;20.00;62.90
33564;DHT22;19894;48.452;11.494;2023-05-23T12:41:44;20.00;63.00
33564;DHT22;19894;48.452;11.494;2023-05-23T12:44:10;20.00;62.90
33564;DHT22;19894;48.452;11.494;2023-05-23T12:46:39;20.00;62.80
33564;DHT22;19894;48.452;11.494;2023-05-23T12:49:05;20.00;62.80
33564;DHT22;19894;48.452;11.494;2023-05-23T12:51:31;20.00;62.80
33564;DHT22;19894;48.452;11.494;2023-05-23T12:53:57;20.00;62.70
33564;DHT22;19894;48.452;11.494;2023-05-23T12:56:22;19.90;63.10
33564;DHT22;19894;48.452;11.494;2023-05-23T12:58:48;20.00;62.60
33564;DHT22;19894;48.452;11.494;2023-05-23T13:01:14;20.00;63.10
33564;DHT22;19894;48.452;11.494;2023-05-23T13:03:39;20.00;62.50
33564;DHT22;19894;48.452;11.494;2023-05-23T13:06:05;20.00;62.40
33564;DHT22;19894;48.452;11.494;2023-05-23T13:08:31;20.00;62.30
33564;DHT22;19894;48.452;11.494;2023-05-23T13:10:57;20.00;62.30
33564;DHT22;19894;48.452;11.494;2023-05-23T13:13:23;19.90;62.20
33564;DHT22;19894;48.452;11.494;2023-05-23T13:15:49;20.00;62.20
33564;DHT22;19894;48.452;11.494;2023-05-23T13:18:15;20.00;62.10
33564;DHT22;19894;48.452;11.494;2023-05-23T13:20:41;19.90;61.90
33564;DHT22;19894;48.452;11.494;2023-05-23T13:23:07;20.00;61.80
33564;DHT22;19894;48.452;11.494;2023-05-23T13:25:33;19.90;61.60
33564;DHT22;19894;48.452;11.494;2023-05-23T13:27:59;20.00;61.70
33564;DHT22;19894;48.452;11.494;2023-05-23T13:30:26;19.90;61.50
33564;DHT22;19894;48.452;11.494;2023-05-23T13:32:52;19.90;61.60
33564;DHT22;19894;48.452;11.494;2023-05-23T13:35:18;20.00;62.10
33564;DHT22;19894;48.452;11.494;2023-05-23T13:37:44;20.00;62.20
33564;DHT22;19894;48.452;11.494;2023-05-23T13:40:14;19.90;62.10
33564;DHT22;19894;48.452;11.494;2023-05-23T13:42:41;20.00;62.20
33564;DHT22;19894;48.452;11.494;2023-05-23T13:45:07;20.00;62.10
33564;DHT22;19894;48.452;11.494;2023-05-23T13:47:33;19.90;62.10
33564;DHT22;19894;48.452;11.494;2023-05-23T13:49:58;19.90;62.20
33564;DHT22;19894;48.452;11.494;2023-05-23T13:52:24;19.90;62.20
33564;DHT22;19894;48.452;11.494;2023-05-23T13:54:50;20.00;62.20
33564;DHT22;19894;48.452;11.494;2023-05-23T13:57:16;19.90;62.10
33564;DHT22;19894;48.452;11.494;2023-05-23T13:59:41;20.00;62.00
33564;DHT22;19894;48.452;11.494;2023-05-23T14:02:07;20.00;61.90
33564;DHT22;19894;48.452;11.494;2023-05-23T14:04:32;20.00;61.80
33564;DHT22;19894;48.452;11.494;2023-05-23T14:06:58;20.00;61.70
33564;DHT22;19894;48.452;11.494;2023-05-23T14:09:24;20.00;61.70
33564;DHT22;19894;48.452;11.494;2023-05-23T14:11:49;20.00;61.60
33564;DHT22;19894;48.452;11.494;2023-05-23T14:14:17;20.00;61.60
33564;DHT22;19894;48.452;11.494;2023-05-23T14:16:43;20.00;61.40
33564;DHT22;19894;48.452;11.494;2023-05-23T14:19:08;19.90;61.20
33564;DHT22;19894;48.452;11.494;2023-05-23T14:21:34;20.00;61.20
33564;DHT22;19894;48.452;11.494;2023-05-23T14:24:01;20.00;61.20
33564;DHT22;19894;48.452;11.494;2023-05-23T14:26:27;20.00;61.00
33564;DHT22;19894;48.452;11.494;2023-05-23T14:28:52;19.90;60.80
33564;DHT22;19894;48.452;11.494;2023-05-23T14:31:18;19.90;60.80
33564;DHT22;19894;48.452;11.494;2023-05-23T14:33:43;20.00;60.80
33564;DHT22;19894;48.452;11.494;2023-05-23T14:36:09;19.90;60.70
33564;DHT22;19894;48.452;11.494;2023-05-23T14:38:35;19.90;60.70
33564;DHT22;19894;48.452;11.494;2023-05-23T14:41:01;19.90;60.80
33564;DHT22;19894;48.452;11.494;2023-05-23T14:43:27;19.90;60.90
33564;DHT22;19894;48.452;11.494;2023-05-23T14:45:52;19.90;60.90
33564;DHT22;19894;48.452;11.494;2023-05-23T14:48:18;19.90;60.90
33564;DHT22;19894;48.452;11.494;2023-05-23T14:50:43;20.00;60.80
33564;DHT22;19894;48.452;11.494;2023-05-23T14:53:09;19.90;60.70
33564;DHT22;19894;48.452;11.494;2023-05-23T14:55:35;20.00;61.30
33564;DHT22;19894;48.452;11.494;2023-05-23T14:58:00;20.00;60.70
33564;DHT22;19894;48.452;11.494;2023-05-23T15:00:27;20.00;60.60
33564;DHT22;19894;48.452;11.494;2023-05-23T15:02:53;20.00;60.60
33564;DHT22;19894;48.452;11.494;2023-05-23T15:05:18;20.00;60.50
33564;DHT22;19894;48.452;11.494;2023-05-23T15:07:44;20.00;60.50
33564;DHT22;19894;48.452;11.494;2023-05-23T15:10:10;20.00;60.40
33564;DHT22;19894;48.452;11.494;2023-05-23T15:12:36;20.00;60.40
33564;DHT22;19894;48.452;11.494;2023-05-23T15:15:01;20.00;60.30
33564;DHT22;19894;48.452;11.494;2023-05-23T15:17:32;20.00;60.30
33564;DHT22;19894;48.452;11.494;2023-05-23T15:19:58;20.00;60.20
33564;DHT22;19894;48.452;11.494;2023-05-23T15:22:24;20.00;60.10
33564;DHT22;19894;48.452;11.494;2023-05-23T15:24:50;20.00;60.10
33564;DHT22;19894;48.452;11.494;2023-05-23T15:27:15;20.00;60.00
33564;DHT22;19894;48.452;11.494;2023-05-23T15:29:41;20.00;59.90
33564;DHT22;19894;48.452;11.494;2023-05-23T15:32:07;20.00;59.90
33564;DHT22;19894;48.452;11.494;2023-05-23T15:34:33;20.00;59.90
33564;DHT22;19894;48.452;11.494;2023-05-23T15:36:59;20.00;59.80